Time;durP1;ratioP1;P1;durP2;ratioP2;P2;SDS_P1;SDS_P2;PMS_P1;PMS_P2;Temp;Humidity;BMP_temperature;BMP_pressure;BME280_temperature;BME280_humidity;BME280_pressure;Samples;Min_cycle;Max_cycle;Signal;HPM_P1;HPM_P2
2023/05/23 00:01:13;;;;;;;4.10;3.30;;;24.90;59.00;;;;;;221792;1258;22688;-51
2023/05/23 00:06:20;;;;;;;3.30;3.00;;;24.90;59.10;;;;;;221843;1256;25273;-46
2023/05/23 00:11:26;;;;;;;3.80;3.30;;;24.90;59.20;;;;;;221731;1259;23932;-48
2023/05/23 00:16:31;;;;;;;3.90;3.50;;;24.80;59.30;;;;;;221656;1247;22641;-44
2023/05/23 00:21:36;;;;;;;3.50;3.10;;;24.80;59.50;;;;;;221662;1263;24183;-46
2023/05/23 00:26:40;;;;;;;3.40;3.10;;;24.70;59.50;;;;;;221857;1259;24245;-48
2023/05/23 00:31:45;;;;;;;3.50;3.30;;;24.70;59.70;;;;;;221796;1263;24311;-47
2023/05/23 00:36:50;;;;;;;3.10;2.70;;;24.70;59.60;;;;;;221540;1256;25841;-44
2023/05/23 00:41:55;;;;;;;3.10;2.80;;;24.70;60.00;;;;;;221771;1257;25217;-46
2023/05/23 00:46:59;;;;;;;3.80;3.10;;;24.70;60.10;;;;;;221803;1256;22668;-46
2023/05/23 00:52:04;;;;;;;3.60;3.20;;;24.70;60.10;;;;;;221677;1264;22810;-52
2023/05/23 00:57:08;;;;;;;3.30;3.00;;;24.70;60.00;;;;;;221735;1257;22531;-45
2023/05/23 01:02:12;;;;;;;4.40;3.90;;;24.60;60.00;;;;;;221665;1264;22553;-46
2023/05/23 01:07:17;;;;;;;3.60;3.30;;;24.60;60.20;;;;;;221572;1264;22602;-46
2023/05/23 01:12:46;;;;;;;3.80;3.50;;;24.60;60.30;;;;;;221489;1256;22518;-45
2023/05/23 01:18:09;;;;;;;4.50;2.90;;;24.70;60.50;;;;;;223791;1265;24540;-47
2023/05/23 01:23:39;;;;;;;4.20;3.80;;;24.70;60.00;;;;;;221529;1264;24432;-48
2023/05/23 01:28:47;;;;;;;3.20;3.00;;;24.60;59.70;;;;;;221840;1256;24267;-47
2023/05/23 01:33:53;;;;;;;3.10;2.90;;;24.60;60.20;;;;;;221729;1259;22626;-47
2023/05/23 01:38:57;;;;;;;3.40;3.10;;;24.60;60.60;;;;;;222237;1253;23879;-45
2023/05/23 01:44:04;;;;;;;4.50;3.20;;;24.50;60.50;;;;;;221856;1259;22539;-43
2023/05/23 01:49:11;;;;;;;3.90;3.50;;;24.60;60.20;;;;;;221824;1259;24755;-44
2023/05/23 01:54:16;;;;;;;3.20;3.00;;;24.50;60.40;;;;;;221884;1264;25463;-44
2023/05/23 01:59:20;;;;;;;3.40;3.20;;;24.50;60.20;;;;;;222036;1263;22511;-46
2023/05/23 02:04:24;;;;;;;3.20;3.00;;;24.50;60.60;;;;;;221775;1256;24292;-44
2023/05/23 02:09:28;;;;;;;3.30;3.00;;;24.50;60.60;;;;;;221815;1264;24196;-45
2023/05/23 02:14:32;;;;;;;5.80;3.10;;;24.50;60.50;;;;;;221653;1256;252222;-46
2023/05/23 02:19:37;;;;;;;3.40;3.10;;;24.50;60.40;;;;;;221794;1247;22511;-46
2023/05/23 02:24:41;;;;;;;3.90;3.10;;;24.50;60.50;;;;;;221772;1256;24246;-45
2023/05/23 02:29:45;;;;;;;2.90;2.70;;;24.40;60.50;;;;;;221716;1256;24404;-46
2023/05/23 02:34:49;;;;;;;3.20;2.90;;;24.40;60.50;;;;;;221801;1256;22543;-45
2023/05/23 02:39:55;;;;;;;5.40;3.00;;;24.40;61.00;;;;;;222008;1257;22553;-45
2023/05/23 02:45:00;;;;;;;3.40;3.20;;;24.40;61.20;;;;;;221911;1256;22999;-46
2023/05/23 02:50:05;;;;;;;3.10;2.90;;;24.30;60.50;;;;;;221753;1265;25309;-44
2023/05/23 02:55:09;;;;;;;3.30;2.90;;;24.30;60.70;;;;;;222322;1271;25214;-47
2023/05/23 03:00:17;;;;;;;8.00;3.10;;;24.40;60.60;;;;;;221726;1258;23023;-44
2023/05/23 03:05:24;;;;;;;3.10;2.80;;;24.30;60.70;;;;;;221723;1262;23445;-44
2023/05/23 03:10:30;;;;;;;3.10;2.80;;;24.30;60.70;;;;;;221663;1262;23948;-46
2023/05/23 03:15:35;;;;;;;2.90;2.70;;;24.30;60.70;;;;;;221803;1257;24189;-45
2023/05/23 03:20:40;;;;;;;3.00;2.70;;;24.20;60.90;;;;;;221720;1258;23888;-46
2023/05/23 03:25:44;;;;;;;3.40;2.80;;;24.20;60.80;;;;;;221862;1256;22603;-46
2023/05/23 03:30:48;;;;;;;3.00;2.80;;;24.20;60.90;;;;;;221610;1263;25593;-47
2023/05/23 03:35:53;;;;;;;3.10;2.90;;;24.20;60.80;;;;;;221874;1265;22984;-46
2023/05/23 03:40:57;;;;;;;3.10;2.70;;;24.20;61.10;;;;;;221635;1255;24302;-47
2023/05/23 03:46:02;;;;;;;4.10;3.00;;;24.20;60.80;;;;;;221798;1256;22540;-50
2023/05/23 03:51:08;;;;;;;3.00;2.80;;;24.20;60.70;;;;;;221896;1267;22504;-45
2023/05/23 03:56:12;;;;;;;2.70;2.50;;;24.20;60.80;;;;;;221813;1256;22522;-47
2023/05/23 04:01:16;;;;;;;2.90;2.70;;;24.20;60.80;;;;;;221796;1265;22518;-48
2023/05/23 04:06:22;;;;;;;3.90;2.70;;;24.20;61.50;;;;;;221996;1265;23176;-47
2023/05/23 04:11:27;;;;;;;2.90;2.70;;;24.20;60.80;;;;;;221803;1256;25214;-45
2023/05/23 04:16:31;;;;;;;2.90;2.70;;;24.10;60.80;;;;;;221759;1265;22819;-45
2023/05/23 04:21:36;;;;;;;3.90;2.80;;;24.10;60.80;;;;;;221900;1256;22533;-46
2023/05/23 04:26:45;;;;;;;2.90;2.70;;;24.10;60.90;;;;;;221762;1267;25453;-45
2023/05/23 04:31:50;;;;;;;3.20;2.90;;;24.10;60.80;;;;;;221831;1249;25708;-43
2023/05/23 04:36:54;;;;;;;2.90;2.70;;;24.10;60.80;;;;;;221638;1259;22598;-47
2023/05/23 04:41:59;;;;;;;2.90;2.50;;;24.10;61.10;;;;;;221849;1254;24084;-44
2023/05/23 04:47:23;;;;;;;2.80;2.60;;;24.10;60.70;;;;;;222015;1256;24101;-49
2023/05/23 04:52:38;;;;;;;3.10;2.80;;;24.10;60.80;;;;;;221769;1258;22507;-45
2023/05/23 04:57:42;;;;;;;2.90;2.70;;;24.20;60.60;;;;;;221871;1266;22539;-44
2023/05/23 05:02:47;;;;;;;3.40;3.00;;;24.10;61.10;;;;;;221571;1261;24623;-44
2023/05/23 05:07:51;;;;;;;2.90;2.70;;;24.10;60.70;;;;;;222268;1247;22527;-43
2023/05/23 05:12:56;;;;;;;3.00;2.80;;;24.10;60.80;;;;;;225200;1269;22800;-44
2023/05/23 05:18:03;;;;;;;3.20;3.00;;;24.20;60.30;;;;;;222806;1257;22727;-45
2023/05/23 05:23:08;;;;;;;5.70;3.50;;;24.20;60.50;;;;;;221659;1263;22517;-44
2023/05/23 05:28:13;;;;;;;3.10;2.70;;;24.20;60.80;;;;;;229286;1263;22514;-45
2023/05/23 05:33:22;;;;;;;2.30;2.20;;;24.20;60.40;;;;;;221707;1256;24240;-44
2023/05/23 05:38:35;;;;;;;2.80;2.60;;;24.30;60.00;;;;;;222122;1256;23898;-46
2023/05/23 05:43:39;;;;;;;3.60;2.80;;;24.20;60.30;;;;;;221550;1271;22530;-43
2023/05/23 05:48:45;;;;;;;2.40;2.30;;;24.20;60.70;;;;;;221836;1264;22570;-54
2023/05/23 05:53:50;;;;;;;2.80;2.60;;;24.20;60.80;;;;;;221675;1264;25259;-52
2023/05/23 05:58:54;;;;;;;2.80;2.60;;;24.10;61.10;;;;;;221866;1259;24089;-47
2023/05/23 06:03:59;;;;;;;3.70;3.40;;;24.20;61.20;;;;;;221766;1263;24222;-47
2023/05/23 06:09:05;;;;;;;4.10;3.70;;;24.30;61.10;;;;;;221793;1265;22563;-46
2023/05/23 06:14:11;;;;;;;5.10;3.50;;;24.50;60.10;;;;;;221716;1259;22643;-48
2023/05/23 06:19:17;;;;;;;5.80;3.70;;;24.40;61.00;;;;;;221821;1259;22696;-44
2023/05/23 06:24:22;;;;;;;4.80;3.50;;;24.40;60.80;;;;;;221452;1265;24202;-47
2023/05/23 06:29:26;;;;;;;5.60;3.50;;;24.40;60.40;;;;;;221475;1256;22514;-44
2023/05/23 06:34:31;;;;;;;6.20;3.50;;;24.40;60.60;;;;;;221386;1257;22659;-47
2023/05/23 06:39:35;;;;;;;3.60;3.20;;;24.50;60.30;;;;;;221661;1259;24174;-48
2023/05/23 06:44:39;;;;;;;8.10;3.90;;;24.50;60.00;;;;;;221942;1256;22508;-43
2023/05/23 06:49:44;;;;;;;5.70;3.60;;;24.60;58.60;;;;;;222088;1248;22742;-46
2023/05/23 06:54:50;;;;;;;9.20;4.40;;;24.60;59.60;;;;;;221806;1256;22534;-46
2023/05/23 06:59:54;;;;;;;8.70;4.00;;;24.50;60.00;;;;;;221817;1264;25392;-47
2023/05/23 07:04:58;;;;;;;11.10;4.00;;;24.60;59.30;;;;;;221802;1256;22637;-47
2023/05/23 07:10:22;;;;;;;5.30;3.60;;;24.50;60.10;;;;;;221474;1263;24017;-47
2023/05/23 07:15:27;;;;;;;9.20;5.00;;;24.40;59.50;;;;;;221342;1266;22654;-48
2023/05/23 07:20:49;;;;;;;8.10;4.80;;;24.30;57.90;;;;;;227071;1263;22556;-47
2023/05/23 07:25:55;;;;;;;12.90;6.00;;;24.50;55.50;;;;;;221639;1263;22548;-45
2023/05/23 07:31:17;;;;;;;9.50;6.00;;;24.40;54.60;;;;;;221909;1263;22506;-45
2023/05/23 07:36:22;;;;;;;11.50;5.20;;;24.30;55.30;;;;;;222080;1270;25387;-47
2023/05/23 07:41:27;;;;;;;7.20;6.30;;;24.40;55.60;;;;;;221681;1263;22699;-47
2023/05/23 07:46:31;;;;;;;7.70;5.40;;;24.40;55.30;;;;;;221832;1263;22522;-45
2023/05/23 07:51:35;;;;;;;6.50;5.70;;;24.40;55.10;;;;;;221454;1266;23056;-49
2023/05/23 07:56:42;;;;;;;12.00;5.90;;;24.40;54.30;;;;;;221354;1256;22514;-44
2023/05/23 08:01:49;;;;;;;7.70;5.90;;;24.30;54.20;;;;;;221774;1271;22512;-50
2023/05/23 08:06:55;;;;;;;10.50;6.20;;;24.30;54.30;;;;;;221670;1267;25377;-50
2023/05/23 08:12:08;;;;;;;5.70;5.20;;;24.40;53.80;;;;;;221589;1267;22565;-50
2023/05/23 08:17:13;;;;;;;7.30;5.50;;;24.40;53.60;;;;;;221720;1263;22528;-49
2023/05/23 08:22:18;;;;;;;7.30;5.40;;;24.30;53.40;;;;;;221582;1266;24236;-46
2023/05/23 08:27:22;;;;;;;7.20;5.60;;;24.40;53.30;;;;;;221740;1261;22748;-47
2023/05/23 08:32:30;;;;;;;8.00;5.50;;;24.30;53.30;;;;;;221608;1256;22925;-50
2023/05/23 08:37:35;;;;;;;6.50;5.20;;;24.30;53.30;;;;;;221770;1258;24288;-48
2023/05/23 08:42:40;;;;;;;12.30;5.40;;;24.40;52.90;;;;;;222072;1257;22513;-48
2023/05/23 08:47:46;;;;;;;30.70;17.80;;;24.40;53.30;;;;;;221859;1262;24214;-50
2023/05/23 08:52:57;;;;;;;68.80;36.80;;;24.40;53.30;;;;;;221508;1259;22604;-46
2023/05/23 08:58:02;;;;;;;102.00;57.60;;;24.30;53.60;;;;;;221349;1256;23042;-48
2023/05/23 09:03:29;;;;;;;134.50;75.00;;;24.30;53.80;;;;;;221994;1256;22613;-46
2023/05/23 09:09:07;;;;;;;148.00;79.90;;;24.50;53.80;;;;;;221757;1254;24312;-47
2023/05/23 09:14:13;;;;;;;111.90;59.20;;;24.50;53.80;;;;;;222105;1257;22782;-50
2023/05/23 09:19:18;;;;;;;117.10;51.80;;;24.40;54.10;;;;;;221831;1263;22511;-46
2023/05/23 09:24:35;;;;;;;83.00;46.80;;;24.50;53.90;;;;;;221612;1264;23022;-47
2023/05/23 09:29:42;;;;;;;97.10;46.60;;;24.60;53.70;;;;;;221887;1264;22628;-47
2023/05/23 09:34:49;;;;;;;86.00;43.40;;;24.60;54.00;;;;;;221961;1250;23919;-49
2023/05/23 09:39:55;;;;;;;78.70;41.50;;;24.50;54.00;;;;;;221904;1249;22524;-47
2023/05/23 09:44:59;;;;;;;70.90;37.00;;;24.50;54.80;;;;;;221542;1266;22514;-49
2023/05/23 09:50:07;;;;;;;68.20;34.30;;;24.50;54.90;;;;;;221632;1266;22511;-47
2023/05/23 09:55:12;;;;;;;60.10;32.40;;;24.50;55.10;;;;;;221797;1265;22529;-48
2023/05/23 10:00:17;;;;;;;55.70;32.20;;;24.50;55.90;;;;;;221889;1264;22508;-46
2023/05/23 10:05:48;;;;;;;47.90;28.40;;;24.50;55.60;;;;;;222228;1259;25377;-47
2023/05/23 10:10:56;;;;;;;51.60;29.20;;;24.60;56.00;;;;;;221816;1264;22502;-45
2023/05/23 10:16:15;;;;;;;43.40;26.20;;;24.50;56.20;;;;;;221560;1266;22511;-47
2023/05/23 10:21:30;;;;;;;43.10;24.40;;;24.50;56.80;;;;;;221598;1262;25337;-45
2023/05/23 10:26:35;;;;;;;39.60;24.00;;;24.50;57.40;;;;;;221497;1263;22602;-47
2023/05/23 10:31:40;;;;;;;42.00;22.40;;;24.50;57.50;;;;;;221536;1266;25238;-49
2023/05/23 10:37:06;;;;;;;41.00;21.80;;;24.50;57.50;;;;;;221641;1263;26513;-45
2023/05/23 10:42:16;;;;;;;36.10;20.30;;;24.60;57.60;;;;;;221615;1263;22750;-47
2023/05/23 10:47:29;;;;;;;35.10;19.30;;;24.60;57.60;;;;;;221547;1257;22504;-50
2023/05/23 10:52:42;;;;;;;29.70;18.90;;;24.60;57.70;;;;;;221309;1257;22515;-47
2023/05/23 10:57:46;;;;;;;29.10;19.10;;;24.60;57.80;;;;;;221829;1266;25460;-48
2023/05/23 11:02:56;;;;;;;29.70;18.60;;;24.60;57.80;;;;;;221834;1257;22517;-48
2023/05/23 11:08:09;;;;;;;33.90;19.60;;;24.60;57.70;;;;;;221408;1254;22626;-45
2023/05/23 11:13:14;;;;;;;24.80;17.80;;;24.70;57.60;;;;;;221459;1264;22519;-51
2023/05/23 11:18:23;;;;;;;24.10;16.00;;;24.60;57.80;;;;;;221745;1263;22528;-51
2023/05/23 11:23:40;;;;;;;28.70;15.40;;;24.60;58.30;;;;;;221654;1264;22529;-52
2023/05/23 11:28:58;;;;;;;23.60;15.90;;;24.50;58.60;;;;;;221708;1263;25318;-53
2023/05/23 11:34:02;;;;;;;27.80;15.70;;;24.60;59.50;;;;;;221699;1259;24353;-49
2023/05/23 11:39:06;;;;;;;24.50;13.70;;;24.70;58.80;;;;;;221492;1251;22494;-50
2023/05/23 11:44:12;;;;;;;21.60;13.10;;;24.70;58.90;;;;;;221338;1258;23928;-49
2023/05/23 11:49:16;;;;;;;20.90;12.60;;;24.70;59.10;;;;;;221727;1264;22515;-52
2023/05/23 11:54:25;;;;;;;17.30;12.40;;;24.70;59.00;;;;;;221638;1257;25928;-51
2023/05/23 11:59:29;;;;;;;17.70;10.00;;;24.70;59.20;;;;;;222588;1259;22513;-47
2023/05/23 12:04:35;;;;;;;15.50;10.50;;;24.70;59.10;;;;;;222119;1264;22514;-51
2023/05/23 12:09:43;;;;;;;15.60;10.00;;;24.70;58.80;;;;;;223069;1268;24186;-51
2023/05/23 12:14:47;;;;;;;13.20;9.20;;;24.70;58.80;;;;;;221773;1257;22984;-49
2023/05/23 12:19:52;;;;;;;12.80;8.00;;;24.70;59.00;;;;;;221490;1262;25084;-51
2023/05/23 12:24:57;;;;;;;10.60;8.40;;;24.70;58.80;;;;;;221386;1260;22537;-49
2023/05/23 12:30:17;;;;;;;11.10;7.00;;;24.60;58.80;;;;;;221694;1264;24386;-51
2023/05/23 12:35:24;;;;;;;8.10;7.30;;;24.60;58.70;;;;;;221499;1250;25179;-51
2023/05/23 12:40:29;;;;;;;10.00;8.10;;;24.50;59.10;;;;;;221694;1267;25323;-52
2023/05/23 12:45:35;;;;;;;8.60;7.70;;;24.50;58.90;;;;;;222128;1265;22519;-50
2023/05/23 12:50:40;;;;;;;7.80;7.10;;;24.50;58.70;;;;;;221583;1257;23897;-50
2023/05/23 12:55:44;;;;;;;10.60;7.90;;;24.50;58.60;;;;;;222020;1263;24199;-48
2023/05/23 13:00:48;;;;;;;7.90;6.70;;;24.50;58.10;;;;;;221596;1260;23698;-51
2023/05/23 13:05:53;;;;;;;7.90;7.20;;;24.50;58.40;;;;;;222067;1264;22518;-49
2023/05/23 13:10:57;;;;;;;8.30;6.70;;;24.60;58.20;;;;;;223625;1257;25450;-53
2023/05/23 13:16:01;;;;;;;7.60;6.60;;;24.60;58.00;;;;;;221635;1269;22752;-51
2023/05/23 13:21:06;;;;;;;9.20;6.60;;;24.60;58.10;;;;;;221800;1266;22519;-51
2023/05/23 13:26:10;;;;;;;7.70;7.00;;;24.60;58.00;;;;;;221485;1256;22531;-53
2023/05/23 13:31:14;;;;;;;7.90;7.20;;;24.60;58.20;;;;;;221701;1257;22602;-50
2023/05/23 13:36:18;;;;;;;7.00;6.40;;;24.50;58.20;;;;;;221837;1261;24189;-51
2023/05/23 13:41:22;;;;;;;8.00;7.20;;;24.50;58.20;;;;;;221610;1264;22524;-49
2023/05/23 13:46:27;;;;;;;8.40;6.00;;;24.60;58.50;;;;;;221679;1267;22522;-52
2023/05/23 13:51:32;;;;;;;11.30;6.40;;;24.70;58.60;;;;;;221399;1263;23882;-54
2023/05/23 13:56:38;;;;;;;7.60;6.80;;;24.70;58.80;;;;;;221674;1265;22642;-52
2023/05/23 14:01:42;;;;;;;10.70;7.00;;;24.70;59.10;;;;;;221456;1260;22511;-55
2023/05/23 14:06:46;;;;;;;13.40;7.00;;;24.70;58.80;;;;;;221903;1257;22590;-54
2023/05/23 14:11:51;;;;;;;10.80;7.00;;;24.70;60.50;;;;;;221522;1260;413716;-52
2023/05/23 14:16:56;;;;;;;11.60;7.10;;;24.80;60.10;;;;;;221826;1266;25198;-50
2023/05/23 14:22:00;;;;;;;8.10;6.70;;;24.80;59.70;;;;;;221925;1266;23188;-49
2023/05/23 14:27:05;;;;;;;8.50;6.10;;;24.80;59.60;;;;;;221792;1271;22507;-51
2023/05/23 14:32:13;;;;;;;8.60;6.30;;;24.70;59.50;;;;;;222060;1263;24352;-53
2023/05/23 14:37:17;;;;;;;8.30;7.00;;;24.70;59.00;;;;;;221832;1257;22772;-52
2023/05/23 14:42:21;;;;;;;42.10;33.60;;;24.70;60.00;;;;;;222182;1265;22534;-52
2023/05/23 14:47:26;;;;;;;41.60;35.30;;;24.60;61.80;;;;;;221780;1257;22579;-55
2023/05/23 14:52:30;;;;;;;41.30;31.10;;;24.60;64.00;;;;;;221844;1257;24187;-52
2023/05/23 14:57:34;;;;;;;12.20;10.70;;;24.70;63.60;;;;;;221691;1261;25227;-51
2023/05/23 15:02:38;;;;;;;13.00;10.10;;;24.60;60.90;;;;;;221589;1265;23929;-53
2023/05/23 15:07:46;;;;;;;8.90;7.80;;;24.50;58.80;;;;;;221572;1269;22556;-51
2023/05/23 15:12:50;;;;;;;9.90;8.70;;;24.40;58.80;;;;;;221950;1257;24163;-51
2023/05/23 15:17:54;;;;;;;10.70;8.70;;;24.50;59.80;;;;;;221457;1271;22536;-49
2023/05/23 15:22:58;;;;;;;8.80;7.90;;;24.60;60.20;;;;;;221475;1257;22545;-52
2023/05/23 15:28:03;;;;;;;10.10;8.90;;;24.90;64.50;;;;;;221544;1263;23682;-51
2023/05/23 15:33:08;;;;;;;8.30;7.30;;;25.00;63.50;;;;;;221531;1259;24078;-50
2023/05/23 15:38:13;;;;;;;9.90;7.30;;;24.90;63.00;;;;;;221636;1266;22684;-54
2023/05/23 15:43:21;;;;;;;7.50;6.80;;;24.90;62.10;;;;;;221630;1264;25514;-53
2023/05/23 15:48:25;;;;;;;9.70;6.90;;;24.90;60.90;;;;;;221480;1266;24251;-51
2023/05/23 15:53:30;;;;;;;8.60;6.70;;;24.90;60.90;;;;;;221568;1267;22754;-49
2023/05/23 15:58:39;;;;;;;14.70;7.90;;;25.00;61.60;;;;;;221544;1266;24185;-52
2023/05/23 16:03:43;;;;;;;16.00;7.80;;;25.10;62.90;;;;;;221695;1264;24300;-50
2023/05/23 16:08:48;;;;;;;14.00;8.00;;;25.10;63.50;;;;;;221631;1269;22518;-46
2023/05/23 16:13:52;;;;;;;9.30;7.90;;;25.20;63.20;;;;;;221910;1267;25678;-48
2023/05/23 16:18:57;;;;;;;17.40;8.10;;;25.30;63.50;;;;;;221763;1268;25281;-47
2023/05/23 16:24:01;;;;;;;15.00;8.20;;;25.10;63.20;;;;;;222940;1257;25555;-50
2023/05/23 16:29:06;;;;;;;16.90;7.50;;;25.30;63.20;;;;;;221653;1266;22523;-48
2023/05/23 16:34:12;;;;;;;12.20;7.10;;;25.20;63.20;;;;;;221731;1259;24394;-58
2023/05/23 16:39:16;;;;;;;11.80;7.80;;;25.00;63.90;;;;;;221844;1257;22511;-57
2023/05/23 16:44:21;;;;;;;17.00;7.40;;;25.10;62.80;;;;;;221728;1257;22516;-55
2023/05/23 16:49:26;;;;;;;10.10;6.80;;;25.20;62.30;;;;;;221719;1253;24235;-56
2023/05/23 16:54:32;;;;;;;13.90;8.00;;;25.20;63.00;;;;;;221455;1257;23881;-55
2023/05/23 16:59:36;;;;;;;14.00;7.10;;;25.10;63.00;;;;;;223072;1257;23896;-61
2023/05/23 17:04:41;;;;;;;12.70;7.40;;;25.10;62.80;;;;;;221789;1267;22591;-57
2023/05/23 17:09:46;;;;;;;10.30;7.40;;;25.00;62.40;;;;;;221677;1271;22521;-58
2023/05/23 17:14:50;;;;;;;11.80;8.10;;;24.80;62.90;;;;;;221645;1264;25127;-51
2023/05/23 17:19:54;;;;;;;8.80;6.90;;;24.60;62.70;;;;;;221522;1264;22521;-57
2023/05/23 17:25:00;;;;;;;14.20;6.50;;;24.70;62.70;;;;;;222106;1261;25462;-57
2023/05/23 17:30:04;;;;;;;7.90;6.20;;;24.70;62.20;;;;;;223780;1267;22515;-58
2023/05/23 17:35:09;;;;;;;10.70;6.20;;;24.70;62.30;;;;;;221666;1256;23931;-59
2023/05/23 17:40:14;;;;;;;11.10;7.00;;;24.70;61.00;;;;;;221810;1256;24349;-59
2023/05/23 17:45:18;;;;;;;12.00;6.90;;;24.70;64.90;;;;;;221788;1267;22536;-59
2023/05/23 17:50:23;;;;;;;13.80;7.30;;;24.60;61.60;;;;;;221643;1267;24183;-57
2023/05/23 17:55:27;;;;;;;9.70;6.70;;;24.70;61.50;;;;;;221410;1261;22530;-59
2023/05/23 18:00:35;;;;;;;12.60;7.40;;;24.80;61.10;;;;;;221558;1264;25462;-56
2023/05/23 18:05:39;;;;;;;10.70;6.90;;;24.90;61.90;;;;;;221703;1266;24218;-56
2023/05/23 18:10:46;;;;;;;17.50;6.70;;;24.90;62.10;;;;;;221671;1257;22553;-55
2023/05/23 18:15:50;;;;;;;12.40;6.30;;;25.00;62.30;;;;;;221971;1257;25609;-56
2023/05/23 18:20:54;;;;;;;9.20;6.50;;;24.90;63.00;;;;;;221517;1264;22594;-52
2023/05/23 18:25:58;;;;;;;12.80;6.60;;;24.90;63.00;;;;;;221644;1266;25336;-56
2023/05/23 18:31:03;;;;;;;11.30;7.10;;;24.90;63.30;;;;;;221607;1256;22528;-51
2023/05/23 18:36:07;;;;;;;17.00;8.70;;;24.90;63.50;;;;;;221686;1258;23133;-52
2023/05/23 18:41:12;;;;;;;19.90;8.30;;;24.90;62.80;;;;;;221603;1267;24349;-51
2023/05/23 18:46:17;;;;;;;21.20;9.10;;;24.90;63.20;;;;;;221406;1260;22516;-54
2023/05/23 18:51:22;;;;;;;15.40;7.40;;;24.90;63.00;;;;;;222282;1264;25459;-56
2023/05/23 18:56:26;;;;;;;15.00;7.30;;;24.90;63.40;;;;;;221907;1257;22527;-50
2023/05/23 19:01:32;;;;;;;16.60;7.10;;;24.80;63.20;;;;;;221883;1260;24351;-45
2023/05/23 19:06:37;;;;;;;21.00;8.40;;;24.90;62.40;;;;;;227342;1264;22902;-45
2023/05/23 19:11:42;;;;;;;14.90;7.20;;;25.00;62.40;;;;;;222588;1257;22577;-48
2023/05/23 19:16:46;;;;;;;15.60;7.50;;;24.90;62.90;;;;;;221797;1264;22524;-47
2023/05/23 19:21:51;;;;;;;15.60;7.90;;;24.90;63.70;;;;;;221769;1256;22517;-45
2023/05/23 19:26:55;;;;;;;12.60;7.20;;;24.80;64.30;;;;;;221636;1258;24218;-48
2023/05/23 19:32:00;;;;;;;18.40;7.60;;;24.90;63.60;;;;;;221669;1257;26712;-44
2023/05/23 19:37:05;;;;;;;17.70;8.10;;;25.10;63.40;;;;;;221709;1267;25291;-45
2023/05/23 19:42:09;;;;;;;19.70;8.80;;;24.90;64.00;;;;;;221689;1254;24197;-46
2023/05/23 19:47:13;;;;;;;14.80;7.70;;;24.90;65.90;;;;;;221667;1264;23247;-45
2023/05/23 19:52:17;;;;;;;12.20;7.70;;;25.10;66.60;;;;;;221682;1258;23991;-45
2023/05/23 19:57:21;;;;;;;13.90;8.20;;;25.10;66.10;;;;;;221589;1259;22518;-48
2023/05/23 20:02:26;;;;;;;13.60;8.10;;;25.00;65.90;;;;;;221831;1264;25262;-46
2023/05/23 20:07:30;;;;;;;10.40;7.20;;;25.10;66.50;;;;;;222190;1263;22515;-47
2023/05/23 20:12:34;;;;;;;14.90;7.70;;;25.10;65.80;;;;;;221779;1259;25418;-50
2023/05/23 20:17:38;;;;;;;15.20;7.50;;;25.00;65.60;;;;;;221704;1261;22685;-47
2023/05/23 20:22:42;;;;;;;12.00;7.20;;;24.90;66.00;;;;;;221568;1258;22511;-46
2023/05/23 20:27:47;;;;;;;14.70;8.90;;;25.00;65.70;;;;;;222196;1256;22511;-50
2023/05/23 20:32:52;;;;;;;11.20;7.60;;;25.00;65.60;;;;;;221641;1261;22609;-47
2023/05/23 20:37:57;;;;;;;9.00;6.90;;;25.00;65.60;;;;;;221712;1257;25312;-47
2023/05/23 20:43:03;;;;;;;8.80;7.00;;;25.00;65.50;;;;;;222082;1265;22610;-46
2023/05/23 20:48:08;;;;;;;12.30;7.10;;;25.10;65.50;;;;;;222035;1256;24239;-40
2023/05/23 20:53:13;;;;;;;13.90;7.10;;;25.00;65.60;;;;;;221648;1257;25271;-39
2023/05/23 20:58:18;;;;;;;8.30;6.40;;;25.00;65.40;;;;;;222064;1264;22507;-40
2023/05/23 21:03:22;;;;;;;10.30;6.80;;;25.00;65.70;;;;;;221616;1264;22535;-40
2023/05/23 21:08:26;;;;;;;16.40;8.30;;;25.10;65.10;;;;;;222200;1256;22534;-39
2023/05/23 21:13:30;;;;;;;13.40;6.90;;;25.00;65.20;;;;;;221641;1263;22662;-38
2023/05/23 21:18:34;;;;;;;9.60;6.50;;;25.00;65.40;;;;;;221711;1256;23946;-40
2023/05/23 21:23:39;;;;;;;9.40;5.90;;;24.90;65.40;;;;;;221562;1257;22876;-39
2023/05/23 21:28:43;;;;;;;8.40;6.60;;;24.90;65.30;;;;;;221493;1260;22523;-40
2023/05/23 21:33:47;;;;;;;13.80;6.60;;;24.90;65.70;;;;;;221664;1256;22537;-39
2023/05/23 21:38:51;;;;;;;7.70;6.80;;;24.90;65.50;;;;;;221663;1256;22876;-39
2023/05/23 21:43:56;;;;;;;9.90;6.90;;;24.90;65.30;;;;;;221448;1262;22595;-40
2023/05/23 21:49:00;;;;;;;11.40;6.90;;;24.90;65.20;;;;;;221779;1259;24189;-39
2023/05/23 21:54:05;;;;;;;11.30;6.30;;;24.90;65.20;;;;;;221502;1264;24257;-40
2023/05/23 21:59:09;;;;;;;9.40;5.90;;;25.00;65.00;;;;;;221639;1257;24342;-39
2023/05/23 22:04:17;;;;;;;6.50;5.90;;;24.70;65.50;;;;;;221622;1260;24443;-40
2023/05/23 22:09:21;;;;;;;8.00;6.00;;;24.80;65.40;;;;;;221932;1248;25466;-38
2023/05/23 22:14:26;;;;;;;8.90;6.20;;;24.90;65.50;;;;;;221716;1264;22527;-39
2023/05/23 22:19:30;;;;;;;8.10;5.90;;;24.80;65.60;;;;;;221664;1262;22537;-39
2023/05/23 22:24:34;;;;;;;6.60;5.60;;;24.90;65.50;;;;;;221624;1259;22628;-39
2023/05/23 22:29:38;;;;;;;7.90;6.00;;;24.90;65.90;;;;;;221828;1257;24347;-40
2023/05/23 22:34:44;;;;;;;7.40;5.60;;;24.80;65.60;;;;;;221576;1260;24007;-39
2023/05/23 22:39:48;;;;;;;9.80;6.50;;;24.80;65.60;;;;;;221665;1259;22782;-50
2023/05/23 22:44:52;;;;;;;8.70;5.80;;;24.70;66.00;;;;;;221497;1256;22528;-46
2023/05/23 22:49:58;;;;;;;13.10;6.10;;;24.80;65.70;;;;;;221677;1264;25262;-48
2023/05/23 22:55:02;;;;;;;7.30;6.10;;;24.70;65.90;;;;;;221581;1263;24236;-47
2023/05/23 23:00:10;;;;;;;7.70;5.40;;;24.70;65.90;;;;;;221851;1257;24340;-53
2023/05/23 23:05:14;;;;;;;7.10;5.30;;;24.60;65.90;;;;;;221425;1268;22521;-48
2023/05/23 23:10:19;;;;;;;8.00;5.70;;;24.60;65.50;;;;;;221568;1259;22676;-48
2023/05/23 23:15:23;;;;;;;8.10;5.80;;;24.60;65.50;;;;;;221585;1265;22560;-49
2023/05/23 23:20:27;;;;;;;6.50;5.30;;;24.70;65.50;;;;;;221548;1263;24189;-48
2023/05/23 23:25:32;;;;;;;5.60;5.00;;;24.80;65.20;;;;;;221796;1261;22861;-49
2023/05/23 23:30:36;;;;;;;7.80;5.50;;;24.70;65.20;;;;;;221897;1266;23579;-47
2023/05/23 23:35:44;;;;;;;6.20;5.50;;;24.70;65.30;;;;;;221548;1270;24196;-49
2023/05/23 23:40:48;;;;;;;6.40;5.60;;;24.60;65.10;;;;;;221798;1263;22554;-50
2023/05/23 23:45:52;;;;;;;9.20;5.50;;;24.70;65.20;;;;;;221674;1263;22534;-47
2023/05/23 23:50:56;;;;;;;7.40;5.40;;;24.70;65.20;;;;;;221736;1257;22524;-54
2023/05/23 23:56:00;;;;;;;5.90;5.30;;;24.60;65.00;;;;;;221596;1256;22507;-54
